createdAt,value
2022-11-25T00:00:26.051Z,2.80
2022-11-25T00:02:26.304Z,2.80
2022-11-25T00:04:26.097Z,2.80
2022-11-25T00:06:26.092Z,2.80
2022-11-25T00:08:26.077Z,2.80
2022-11-25T00:10:26.111Z,2.80
2022-11-25T00:12:26.190Z,2.80
2022-11-25T00:14:26.072Z,2.80
2022-11-25T00:16:26.252Z,2.70
2022-11-25T00:18:26.160Z,2.80
2022-11-25T00:20:26.066Z,2.80
2022-11-25T00:22:26.148Z,2.80
2022-11-25T00:24:26.158Z,2.70
2022-11-25T00:26:26.118Z,2.70
2022-11-25T00:28:26.081Z,2.70
2022-11-25T00:30:26.104Z,2.70
2022-11-25T00:32:26.143Z,2.70
2022-11-25T00:34:26.121Z,2.70
2022-11-25T00:36:26.078Z,2.70
2022-11-25T00:38:26.077Z,2.70
2022-11-25T00:40:26.092Z,2.70
2022-11-25T00:42:26.067Z,2.70
2022-11-25T00:44:26.216Z,2.70
2022-11-25T00:46:26.125Z,2.70
2022-11-25T00:48:26.081Z,2.70
2022-11-25T00:50:26.097Z,2.70
2022-11-25T00:52:26.114Z,2.70
2022-11-25T00:54:26.153Z,2.70
2022-11-25T00:56:26.082Z,2.80
2022-11-25T00:58:56.188Z,2.80
2022-11-25T01:00:56.201Z,2.80
2022-11-25T01:02:56.147Z,2.80
2022-11-25T01:04:56.142Z,2.80
2022-11-25T01:06:56.129Z,2.80
2022-11-25T01:08:56.184Z,2.90
2022-11-25T01:10:56.089Z,2.90
2022-11-25T01:12:56.094Z,2.90
2022-11-25T01:14:56.182Z,3.00
2022-11-25T01:16:56.163Z,3.00
2022-11-25T01:18:56.266Z,3.10
2022-11-25T01:20:56.129Z,3.10
2022-11-25T01:22:56.177Z,3.10
2022-11-25T01:24:56.154Z,3.10
2022-11-25T01:26:56.127Z,3.10
2022-11-25T01:28:56.219Z,3.00
2022-11-25T01:30:56.126Z,3.00
2022-11-25T01:32:56.120Z,3.00
2022-11-25T01:34:56.170Z,3.10
2022-11-25T01:36:56.104Z,3.10
2022-11-25T01:38:56.146Z,3.10
2022-11-25T01:40:56.171Z,3.10
2022-11-25T01:42:56.108Z,3.10
2022-11-25T01:44:56.149Z,3.10
2022-11-25T01:46:56.138Z,3.10
2022-11-25T01:48:56.237Z,3.10
2022-11-25T01:50:56.147Z,3.10
2022-11-25T01:52:56.120Z,3.10
2022-11-25T01:54:56.115Z,3.10
2022-11-25T01:56:56.112Z,3.20
2022-11-25T01:58:56.157Z,3.20
2022-11-25T02:00:56.221Z,3.20
2022-11-25T02:02:56.153Z,3.20
2022-11-25T02:04:56.128Z,3.20
2022-11-25T02:06:56.146Z,3.30
2022-11-25T02:08:56.188Z,3.30
2022-11-25T02:10:56.178Z,3.30
2022-11-25T02:12:56.184Z,3.30
2022-11-25T02:14:56.132Z,3.40
2022-11-25T02:16:56.241Z,3.40
2022-11-25T02:18:56.183Z,3.40
2022-11-25T02:20:56.213Z,3.30
2022-11-25T02:22:56.187Z,3.30
2022-11-25T02:24:56.188Z,3.30
2022-11-25T02:26:56.205Z,3.30
2022-11-25T02:28:56.205Z,3.30
2022-11-25T02:30:56.260Z,3.20
2022-11-25T02:32:56.166Z,3.10
2022-11-25T02:34:56.160Z,3.10
2022-11-25T02:36:56.164Z,3.10
2022-11-25T02:38:56.189Z,3.00
2022-11-25T02:40:56.224Z,3.00
2022-11-25T02:42:56.179Z,2.90
2022-11-25T02:44:56.272Z,2.90
2022-11-25T02:46:56.215Z,2.90
2022-11-25T02:49:26.182Z,2.90
2022-11-25T02:51:26.145Z,2.90
2022-11-25T02:53:26.186Z,2.90
2022-11-25T02:55:26.193Z,2.90
2022-11-25T02:57:26.146Z,2.90
2022-11-25T02:59:26.193Z,2.90
2022-11-25T03:01:26.198Z,2.90
2022-11-25T03:03:26.155Z,2.80
2022-11-25T03:05:26.182Z,2.80
2022-11-25T03:07:26.218Z,2.80
2022-11-25T03:09:26.259Z,2.80
2022-11-25T03:11:26.199Z,2.60
2022-11-25T03:13:26.230Z,2.60
2022-11-25T03:15:26.174Z,2.50
2022-11-25T03:17:26.205Z,2.30
2022-11-25T03:19:26.184Z,2.20
2022-11-25T03:21:26.234Z,2.10
2022-11-25T03:23:26.176Z,2.10
2022-11-25T03:25:26.274Z,2.10
2022-11-25T03:27:30.072Z,2.10
2022-11-25T03:29:26.186Z,2.10
2022-11-25T03:31:26.228Z,1.90
2022-11-25T03:33:26.172Z,1.90
2022-11-25T03:35:26.190Z,1.70
2022-11-25T03:37:26.283Z,1.50
2022-11-25T03:39:26.311Z,1.40
2022-11-25T03:41:26.197Z,1.40
2022-11-25T03:43:26.310Z,1.20
2022-11-25T03:45:26.183Z,1.20
2022-11-25T03:47:26.345Z,1.10
2022-11-25T03:49:26.220Z,1.10
2022-11-25T03:51:26.214Z,1.10
2022-11-25T03:53:26.272Z,1.00
2022-11-25T03:55:26.152Z,1.00
2022-11-25T03:57:26.211Z,0.90
2022-11-25T03:59:26.184Z,0.90
2022-11-25T04:01:26.339Z,0.90
2022-11-25T04:03:26.213Z,1.00
2022-11-25T04:05:26.182Z,1.00
2022-11-25T04:07:26.264Z,1.00
2022-11-25T04:09:26.284Z,0.90
2022-11-25T04:11:26.213Z,0.90
2022-11-25T04:13:26.211Z,0.90
2022-11-25T04:15:26.229Z,1.00
2022-11-25T04:17:26.262Z,1.00
2022-11-25T04:19:26.190Z,1.00
2022-11-25T04:21:26.221Z,0.90
2022-11-25T04:23:26.298Z,0.90
2022-11-25T04:25:26.188Z,0.90
2022-11-25T04:27:26.180Z,0.90
2022-11-25T04:29:26.247Z,0.90
2022-11-25T04:31:26.214Z,0.90
2022-11-25T04:33:26.206Z,0.90
2022-11-25T04:35:26.281Z,0.90
2022-11-25T04:37:56.317Z,0.80
2022-11-25T04:39:56.188Z,0.80
2022-11-25T04:41:56.356Z,0.80
2022-11-25T04:46:13.688Z,1.20
2022-11-25T04:47:56.340Z,1.10
2022-11-25T04:49:56.266Z,1.10
2022-11-25T04:51:56.309Z,1.10
2022-11-25T04:53:56.311Z,1.20
2022-11-25T04:55:56.253Z,1.30
2022-11-25T04:57:56.392Z,1.50
2022-11-25T04:59:56.343Z,1.60
2022-11-25T05:01:56.329Z,1.60
2022-11-25T05:03:57.689Z,1.60
2022-11-25T05:05:56.349Z,1.70
2022-11-25T05:07:56.404Z,1.70
2022-11-25T05:11:56.423Z,1.70
2022-11-25T05:16:03.883Z,2.00
2022-11-25T05:18:03.917Z,2.00
2022-11-25T05:20:03.931Z,2.00
2022-11-25T05:22:03.941Z,1.90
2022-11-25T05:24:03.889Z,1.90
2022-11-25T05:26:03.909Z,1.90
2022-11-25T05:28:04.010Z,1.70
2022-11-25T05:30:03.914Z,1.70
2022-11-25T05:32:03.852Z,1.70
2022-11-25T05:34:03.997Z,1.70
2022-11-25T05:36:03.965Z,1.70
2022-11-25T05:38:03.926Z,1.70
2022-11-25T05:40:03.906Z,1.70
2022-11-25T05:42:03.910Z,1.70
2022-11-25T05:44:03.923Z,1.80
2022-11-25T05:46:03.944Z,1.80
2022-11-25T05:48:03.937Z,1.80
2022-11-25T05:50:03.883Z,1.90
2022-11-25T05:52:03.916Z,1.90
2022-11-25T05:54:04.022Z,2.00
2022-11-25T05:56:03.891Z,2.00
2022-11-25T05:58:04.050Z,2.00
2022-11-25T06:00:03.919Z,2.00
2022-11-25T06:02:03.954Z,2.10
2022-11-25T06:04:03.915Z,2.10
2022-11-25T06:06:03.895Z,2.10
2022-11-25T06:08:03.993Z,2.10
2022-11-25T06:10:03.901Z,2.10
2022-11-25T06:12:03.904Z,2.20
2022-11-25T06:14:04.063Z,2.20
2022-11-25T06:16:07.666Z,2.20
2022-11-25T06:18:03.934Z,2.30
2022-11-25T06:20:03.937Z,2.30
2022-11-25T06:22:03.888Z,2.30
2022-11-25T06:24:03.965Z,2.30
2022-11-25T06:26:03.983Z,2.30
2022-11-25T06:28:13.726Z,2.30
2022-11-25T06:30:03.949Z,2.30
2022-11-25T06:32:03.969Z,2.30
2022-11-25T06:34:03.932Z,2.30
2022-11-25T06:36:03.937Z,2.30
2022-11-25T06:38:03.996Z,2.30
2022-11-25T06:40:03.947Z,2.30
2022-11-25T06:42:03.945Z,2.30
2022-11-25T06:44:03.901Z,2.30
2022-11-25T06:46:03.964Z,2.20
2022-11-25T06:48:03.953Z,2.20
2022-11-25T06:50:03.917Z,2.00
2022-11-25T06:52:04.034Z,2.00
2022-11-25T06:54:34.175Z,2.00
2022-11-25T06:56:33.924Z,2.00
2022-11-25T06:58:35.869Z,2.10
2022-11-25T07:00:33.950Z,2.10
2022-11-25T07:02:39.795Z,2.00
2022-11-25T07:04:34.126Z,2.00
2022-11-25T07:06:33.920Z,2.00
2022-11-25T07:08:34.485Z,2.10
2022-11-25T07:10:33.947Z,2.20
2022-11-25T07:12:33.966Z,2.20
2022-11-25T07:14:34.166Z,2.20
2022-11-25T07:16:33.930Z,2.20
2022-11-25T07:18:33.945Z,2.40
2022-11-25T07:20:34.074Z,2.40
2022-11-25T07:22:33.919Z,2.40
2022-11-25T07:24:34.149Z,2.40
2022-11-25T07:26:33.989Z,2.60
2022-11-25T07:28:34.187Z,2.70
2022-11-25T07:32:33.921Z,2.70
2022-11-25T07:34:34.067Z,2.80
2022-11-25T07:36:34.055Z,2.80
2022-11-25T07:38:33.953Z,2.80
2022-11-25T07:40:33.924Z,2.90
2022-11-25T07:42:34.075Z,2.90
2022-11-25T07:44:33.971Z,2.90
2022-11-25T07:46:33.976Z,2.90
2022-11-25T07:48:33.975Z,3.00
2022-11-25T07:50:33.959Z,3.00
2022-11-25T07:52:34.076Z,3.00
2022-11-25T07:54:33.965Z,3.00
2022-11-25T07:56:34.128Z,3.20
2022-11-25T07:58:33.972Z,3.30
2022-11-25T08:00:34.010Z,3.30
2022-11-25T08:02:33.980Z,3.40
2022-11-25T08:04:34.033Z,3.50
2022-11-25T08:06:34.051Z,3.50
2022-11-25T08:08:34.090Z,3.70
2022-11-25T08:10:33.981Z,3.70
2022-11-25T08:12:33.998Z,3.80
2022-11-25T08:14:33.983Z,3.80
2022-11-25T08:16:33.973Z,3.80
2022-11-25T08:18:34.159Z,3.80
2022-11-25T08:20:34.064Z,3.70
2022-11-25T08:22:34.002Z,3.80
2022-11-25T08:24:33.945Z,3.80
2022-11-25T08:26:33.971Z,3.90
2022-11-25T08:28:33.959Z,3.90
2022-11-25T08:30:34.004Z,3.90
2022-11-25T08:32:34.002Z,3.90
2022-11-25T08:34:34.074Z,3.90
2022-11-25T08:36:33.961Z,4.10
2022-11-25T08:38:34.006Z,4.10
2022-11-25T08:40:33.983Z,4.10
2022-11-25T08:42:34.017Z,4.30
2022-11-25T08:45:03.990Z,4.50
2022-11-25T08:47:04.060Z,4.70
2022-11-25T08:49:03.983Z,4.90
2022-11-25T08:51:04.082Z,4.90
2022-11-25T08:53:03.982Z,5.20
2022-11-25T08:55:04.138Z,5.40
2022-11-25T08:57:03.993Z,5.70
2022-11-25T08:59:04.010Z,6.00
2022-11-25T09:01:04.028Z,6.00
2022-11-25T09:03:04.574Z,6.10
2022-11-25T09:05:04.123Z,6.30
2022-11-25T09:07:04.031Z,6.40
2022-11-25T09:09:04.138Z,6.60
2022-11-25T09:11:04.049Z,6.60
2022-11-25T09:13:04.068Z,6.80
2022-11-25T09:15:03.996Z,6.80
2022-11-25T09:17:04.032Z,6.90
2022-11-25T09:19:04.009Z,6.90
2022-11-25T09:21:04.008Z,7.10
2022-11-25T09:23:04.146Z,7.20
2022-11-25T09:25:04.024Z,7.10
2022-11-25T09:27:03.996Z,7.20
2022-11-25T09:29:04.037Z,7.20
2022-11-25T09:31:04.053Z,7.00
2022-11-25T09:33:04.036Z,7.10
2022-11-25T09:35:04.048Z,7.10
2022-11-25T09:37:04.031Z,7.20
2022-11-25T09:39:04.057Z,7.20
2022-11-25T09:41:03.998Z,7.20
2022-11-25T09:43:04.082Z,7.20
2022-11-25T09:45:04.025Z,7.20
2022-11-25T09:47:04.027Z,7.20
2022-11-25T09:49:04.048Z,7.00
2022-11-25T09:51:04.058Z,6.70
2022-11-25T09:53:04.029Z,6.50
2022-11-25T09:55:04.132Z,6.50
2022-11-25T09:57:04.040Z,6.50
2022-11-25T09:59:04.006Z,6.40
2022-11-25T10:01:04.069Z,6.50
2022-11-25T10:03:04.112Z,6.60
2022-11-25T10:05:04.017Z,6.70
2022-11-25T10:07:04.155Z,6.70
2022-11-25T10:09:04.021Z,7.00
2022-11-25T10:11:04.131Z,7.20
2022-11-25T10:13:04.067Z,7.40
2022-11-25T10:15:04.069Z,7.70
2022-11-25T10:17:04.037Z,7.70
2022-11-25T10:19:04.100Z,7.80
2022-11-25T10:21:04.091Z,7.90
2022-11-25T10:23:04.141Z,7.90
2022-11-25T10:25:04.120Z,7.90
2022-11-25T10:27:04.066Z,8.00
2022-11-25T10:29:04.082Z,7.90
2022-11-25T10:31:04.157Z,7.80
2022-11-25T10:33:04.049Z,8.00
2022-11-25T10:35:04.034Z,8.00
2022-11-25T10:37:34.049Z,8.00
2022-11-25T10:39:34.070Z,8.70
2022-11-25T10:41:34.077Z,8.80
2022-11-25T10:43:34.093Z,9.20
2022-11-25T10:45:34.056Z,9.20
2022-11-25T10:47:34.196Z,9.60
2022-11-25T10:49:34.084Z,10.00
2022-11-25T10:51:34.166Z,10.20
2022-11-25T10:53:34.103Z,10.20
2022-11-25T10:55:34.116Z,10.00
2022-11-25T10:57:34.093Z,10.00
2022-11-25T10:59:34.056Z,9.90
2022-11-25T11:01:34.240Z,9.70
2022-11-25T11:03:34.067Z,9.70
2022-11-25T11:05:34.097Z,9.80
2022-11-25T11:07:34.205Z,9.90
2022-11-25T11:09:34.077Z,9.80
2022-11-25T11:11:34.062Z,9.70
2022-11-25T11:13:34.053Z,9.70
2022-11-25T11:15:34.085Z,9.70
2022-11-25T11:17:36.783Z,9.70
2022-11-25T11:19:34.158Z,9.80
2022-11-25T11:21:34.100Z,9.80
2022-11-25T11:23:34.115Z,9.60
2022-11-25T11:25:34.102Z,9.30
2022-11-25T11:27:34.101Z,9.20
2022-11-25T11:29:34.078Z,8.80
2022-11-25T11:31:34.219Z,8.80
2022-11-25T11:33:34.057Z,8.60
2022-11-25T11:35:38.984Z,8.50
2022-11-25T11:37:34.169Z,8.30
2022-11-25T11:39:34.247Z,8.10
2022-11-25T11:41:34.138Z,8.10
2022-11-25T11:43:34.106Z,8.00
2022-11-25T11:45:34.069Z,8.00
2022-11-25T11:47:34.166Z,7.90
2022-11-25T11:49:34.127Z,7.90
2022-11-25T11:51:34.186Z,7.90
2022-11-25T11:53:34.090Z,7.80
2022-11-25T11:55:34.307Z,7.70
2022-11-25T11:57:34.130Z,7.70
2022-11-25T11:59:34.141Z,7.70
2022-11-25T12:03:34.235Z,7.60
2022-11-25T12:05:34.282Z,7.50
2022-11-25T12:07:34.315Z,7.40
2022-11-25T12:09:34.145Z,7.40
2022-11-25T12:11:34.221Z,7.30
2022-11-25T12:13:34.204Z,7.20
2022-11-25T12:15:34.207Z,7.00
2022-11-25T12:17:34.213Z,7.00
2022-11-25T12:19:34.208Z,7.00
2022-11-25T12:21:37.487Z,7.00
2022-11-25T12:25:57.745Z,6.80
2022-11-25T12:27:57.922Z,6.80
2022-11-25T12:29:57.837Z,6.70
2022-11-25T12:31:57.715Z,6.70
2022-11-25T12:33:57.709Z,6.60
2022-11-25T12:35:57.760Z,6.50
2022-11-25T12:37:57.716Z,6.50
2022-11-25T12:39:57.697Z,6.40
2022-11-25T12:41:57.788Z,6.40
2022-11-25T12:43:57.701Z,6.40
2022-11-25T12:45:57.947Z,6.30
2022-11-25T12:48:03.461Z,6.30
2022-11-25T12:49:57.782Z,6.30
2022-11-25T12:51:57.765Z,6.10
2022-11-25T12:53:57.858Z,6.00
2022-11-25T12:55:57.816Z,6.00
2022-11-25T12:57:57.824Z,6.00
2022-11-25T13:00:17.666Z,6.00
2022-11-25T13:01:58.035Z,6.00
2022-11-25T13:03:57.767Z,5.90
2022-11-25T13:05:58.839Z,6.00
2022-11-25T13:07:57.853Z,6.00
2022-11-25T13:09:57.855Z,6.00
2022-11-25T13:11:58.052Z,6.00
2022-11-25T13:13:58.244Z,6.00
2022-11-25T13:15:58.339Z,6.00
2022-11-25T13:17:57.737Z,6.00
2022-11-25T13:19:57.797Z,6.00
2022-11-25T13:21:57.797Z,6.00
2022-11-25T13:23:57.744Z,6.10
2022-11-25T13:25:57.810Z,6.00
2022-11-25T13:27:57.753Z,6.00
2022-11-25T13:29:57.872Z,6.00
2022-11-25T13:31:59.511Z,6.10
2022-11-25T13:33:57.902Z,6.20
2022-11-25T13:35:57.751Z,6.10
2022-11-25T13:37:57.841Z,6.10
2022-11-25T13:39:57.715Z,6.10
2022-11-25T13:41:57.862Z,6.10
2022-11-25T13:44:01.812Z,6.10
2022-11-25T13:45:57.872Z,6.00
2022-11-25T13:47:57.751Z,6.00
2022-11-25T13:49:57.754Z,6.00
2022-11-25T13:51:57.788Z,6.00
2022-11-25T13:53:57.814Z,6.00
2022-11-25T13:55:57.719Z,6.00
2022-11-25T13:57:57.821Z,6.00
2022-11-25T13:59:57.968Z,6.00
2022-11-25T14:01:57.847Z,5.90
2022-11-25T14:04:27.747Z,5.90
2022-11-25T14:06:27.827Z,5.90
2022-11-25T14:08:27.789Z,5.90
2022-11-25T14:10:27.827Z,5.80
2022-11-25T14:12:27.866Z,5.80
2022-11-25T14:14:27.845Z,5.80
2022-11-25T14:16:27.841Z,5.80
2022-11-25T14:18:51.176Z,5.80
2022-11-25T14:20:27.783Z,5.80
2022-11-25T14:22:27.782Z,5.90
2022-11-25T14:24:27.743Z,5.90
2022-11-25T14:26:48.884Z,5.80
2022-11-25T14:28:27.912Z,5.80
2022-11-25T14:30:27.873Z,5.90
2022-11-25T14:32:27.960Z,5.90
2022-11-25T14:34:27.763Z,5.90
2022-11-25T14:36:27.846Z,5.80
2022-11-25T14:38:27.845Z,5.90
2022-11-25T14:40:27.831Z,5.90
2022-11-25T14:42:27.846Z,5.90
2022-11-25T14:44:27.868Z,5.90
2022-11-25T14:46:27.778Z,5.90
2022-11-25T14:48:27.835Z,5.90
2022-11-25T14:50:35.032Z,6.00
2022-11-25T14:52:27.839Z,6.00
2022-11-25T14:54:27.851Z,6.00
2022-11-25T14:56:27.827Z,6.00
2022-11-25T14:58:27.877Z,6.00
2022-11-25T15:00:27.854Z,6.00
2022-11-25T15:02:27.956Z,6.00
2022-11-25T15:04:27.898Z,5.90
2022-11-25T15:06:27.828Z,5.90
2022-11-25T15:08:27.812Z,6.00
2022-11-25T15:10:27.827Z,6.00
2022-11-25T15:12:27.896Z,6.00
2022-11-25T15:14:27.849Z,6.00
2022-11-25T15:16:27.841Z,6.00
2022-11-25T15:18:27.822Z,5.90
2022-11-25T15:20:27.836Z,5.90
2022-11-25T15:22:29.134Z,5.90
2022-11-25T15:24:27.803Z,5.90
2022-11-25T15:26:27.892Z,5.80
2022-11-25T15:28:27.809Z,5.80
2022-11-25T15:30:27.807Z,5.80
2022-11-25T15:32:27.827Z,5.80
2022-11-25T15:34:27.853Z,5.80
2022-11-25T15:36:27.860Z,5.80
2022-11-25T15:38:27.752Z,5.80
2022-11-25T15:40:27.846Z,5.80
2022-11-25T15:42:27.830Z,5.70
2022-11-25T15:44:27.782Z,5.70
2022-11-25T15:46:27.797Z,5.80
2022-11-25T15:48:27.832Z,5.70
2022-11-25T15:50:27.794Z,5.70
2022-11-25T15:52:27.782Z,5.80
2022-11-25T15:54:27.864Z,5.80
2022-11-25T15:56:57.812Z,5.80
2022-11-25T15:59:01.647Z,5.80
2022-11-25T16:00:57.901Z,5.80
2022-11-25T16:02:57.784Z,5.80
2022-11-25T16:05:01.892Z,5.70
2022-11-25T16:06:57.798Z,5.70
2022-11-25T16:08:57.821Z,5.70
2022-11-25T16:10:57.873Z,5.70
2022-11-25T16:12:57.909Z,5.70
2022-11-25T16:14:57.860Z,5.70
2022-11-25T16:16:57.878Z,5.60
2022-11-25T16:18:58.861Z,5.70
2022-11-25T16:20:58.888Z,5.70
2022-11-25T16:22:57.904Z,5.60
2022-11-25T16:25:02.342Z,5.60
2022-11-25T16:26:57.977Z,5.60
2022-11-25T16:28:58.107Z,5.60
2022-11-25T16:30:59.354Z,5.60
2022-11-25T16:32:58.295Z,5.60
2022-11-25T16:34:57.839Z,5.60
2022-11-25T16:36:57.902Z,5.60
2022-11-25T16:38:57.902Z,5.60
2022-11-25T16:40:57.954Z,5.60
2022-11-25T16:42:57.924Z,5.60
2022-11-25T16:44:57.888Z,5.60
2022-11-25T16:46:57.813Z,5.60
2022-11-25T16:48:57.806Z,5.60
2022-11-25T16:50:57.904Z,5.60
2022-11-25T16:52:57.960Z,5.60
2022-11-25T16:54:57.925Z,5.60
2022-11-25T16:56:57.944Z,5.60
2022-11-25T16:58:57.908Z,5.60
2022-11-25T17:00:57.996Z,5.60
2022-11-25T17:02:57.923Z,5.60
2022-11-25T17:04:57.913Z,5.60
2022-11-25T17:07:30.443Z,5.50
2022-11-25T17:08:57.945Z,5.50
2022-11-25T17:10:57.907Z,5.50
2022-11-25T17:12:57.837Z,5.50
2022-11-25T17:14:58.187Z,5.50
2022-11-25T17:16:58.493Z,5.40
2022-11-25T17:18:57.939Z,5.40
2022-11-25T17:20:57.919Z,5.40
2022-11-25T17:22:57.874Z,5.40
2022-11-25T17:24:57.832Z,5.40
2022-11-25T17:26:58.009Z,5.40
2022-11-25T17:28:57.998Z,5.40
2022-11-25T17:30:57.965Z,5.30
2022-11-25T17:32:57.876Z,5.30
2022-11-25T17:34:57.918Z,5.30
2022-11-25T17:36:57.910Z,5.30
2022-11-25T17:38:57.918Z,5.30
2022-11-25T17:40:57.932Z,5.30
2022-11-25T17:42:57.947Z,5.40
2022-11-25T17:44:57.950Z,5.40
2022-11-25T17:46:57.994Z,5.40
2022-11-25T17:49:27.862Z,5.30
2022-11-25T17:51:27.973Z,5.30
2022-11-25T17:53:27.931Z,5.30
2022-11-25T17:55:27.940Z,5.30
2022-11-25T17:57:28.026Z,5.30
2022-11-25T17:59:28.025Z,5.30
2022-11-25T18:01:28.081Z,5.30
2022-11-25T18:03:27.896Z,5.30
2022-11-25T18:05:27.908Z,5.30
2022-11-25T18:07:28.082Z,5.30
2022-11-25T18:09:27.947Z,5.30
2022-11-25T18:11:27.989Z,5.30
2022-11-25T18:13:27.978Z,5.30
2022-11-25T18:15:27.956Z,5.30
2022-11-25T18:17:27.988Z,5.30
2022-11-25T18:19:27.944Z,5.20
2022-11-25T18:21:27.925Z,5.20
2022-11-25T18:23:27.918Z,5.20
2022-11-25T18:25:27.929Z,5.20
2022-11-25T18:27:28.001Z,5.20
2022-11-25T18:29:27.965Z,5.10
2022-11-25T18:31:28.095Z,5.10
2022-11-25T18:33:28.964Z,5.10
2022-11-25T18:35:31.207Z,4.90
2022-11-25T18:37:27.905Z,4.90
2022-11-25T18:39:27.993Z,4.80
2022-11-25T18:41:27.947Z,4.70
2022-11-25T18:43:27.957Z,4.70
2022-11-25T18:45:28.147Z,4.70
2022-11-25T18:47:27.932Z,4.70
2022-11-25T18:49:27.893Z,4.70
2022-11-25T18:51:27.930Z,4.80
2022-11-25T18:53:27.921Z,4.80
2022-11-25T18:55:27.973Z,4.80
2022-11-25T18:57:28.349Z,4.80
2022-11-25T18:59:28.103Z,4.80
2022-11-25T19:01:28.099Z,4.80
2022-11-25T19:03:27.962Z,4.90
2022-11-25T19:05:28.097Z,4.90
2022-11-25T19:07:27.990Z,5.10
2022-11-25T19:09:28.058Z,4.90
2022-11-25T19:11:28.040Z,4.90
2022-11-25T19:13:27.927Z,4.90
2022-11-25T19:15:27.933Z,5.10
2022-11-25T19:17:27.955Z,4.90
2022-11-25T19:19:28.154Z,4.90
2022-11-25T19:21:27.961Z,4.90
2022-11-25T19:23:28.051Z,4.90
2022-11-25T19:25:28.048Z,4.90
2022-11-25T19:27:28.033Z,4.90
2022-11-25T19:29:28.155Z,4.90
2022-11-25T19:31:42.670Z,4.90
2022-11-25T19:33:42.504Z,4.90
2022-11-25T19:35:42.597Z,5.10
2022-11-25T19:37:42.616Z,5.10
2022-11-25T19:39:42.529Z,5.20
2022-11-25T19:41:42.834Z,5.20
2022-11-25T19:43:42.659Z,5.20
2022-11-25T19:45:42.727Z,5.20
2022-11-25T19:47:45.563Z,5.20
2022-11-25T19:49:42.629Z,5.20
2022-11-25T19:51:42.512Z,5.20
2022-11-25T19:53:42.667Z,5.20
2022-11-25T19:55:42.620Z,5.20
2022-11-25T19:57:42.586Z,5.20
2022-11-25T19:59:42.567Z,5.20
2022-11-25T20:01:42.620Z,5.20
2022-11-25T20:03:46.423Z,5.20
2022-11-25T20:05:42.593Z,5.20
2022-11-25T20:07:42.580Z,5.20
2022-11-25T20:09:42.561Z,5.20
2022-11-25T20:11:42.657Z,5.20
2022-11-25T20:13:42.654Z,5.20
2022-11-25T20:15:42.585Z,5.20
2022-11-25T20:17:42.611Z,5.20
2022-11-25T20:19:42.604Z,5.20
2022-11-25T20:21:42.698Z,5.20
2022-11-25T20:23:44.333Z,5.20
2022-11-25T20:25:42.692Z,5.20
2022-11-25T20:27:42.641Z,5.20
2022-11-25T20:29:42.592Z,5.20
2022-11-25T20:31:42.608Z,5.20
2022-11-25T20:33:42.738Z,5.20
2022-11-25T20:35:42.661Z,5.20
2022-11-25T20:38:12.694Z,5.20
2022-11-25T20:40:12.692Z,5.20
2022-11-25T20:42:12.680Z,5.20
2022-11-25T20:44:12.598Z,5.30
2022-11-25T20:46:12.742Z,5.30
2022-11-25T20:48:12.678Z,5.30
2022-11-25T20:50:12.669Z,5.30
2022-11-25T20:52:12.648Z,5.30
2022-11-25T20:54:13.586Z,5.30
2022-11-25T20:56:13.560Z,5.30
2022-11-25T20:58:13.598Z,5.30
2022-11-25T21:00:12.611Z,5.30
2022-11-25T21:02:12.726Z,5.40
2022-11-25T21:04:12.645Z,5.40
2022-11-25T21:06:12.657Z,5.40
2022-11-25T21:08:12.678Z,5.40
2022-11-25T21:10:12.659Z,5.30
2022-11-25T21:12:15.953Z,5.30
2022-11-25T21:14:12.738Z,5.30
2022-11-25T21:16:12.741Z,5.30
2022-11-25T21:18:12.556Z,5.30
2022-11-25T21:20:12.611Z,5.30
2022-11-25T21:22:12.595Z,5.30
2022-11-25T21:24:12.587Z,5.50
2022-11-25T21:26:12.613Z,5.50
2022-11-25T21:28:12.623Z,5.50
2022-11-25T21:30:12.584Z,5.40
2022-11-25T21:32:12.686Z,5.40
2022-11-25T21:34:12.600Z,5.40
2022-11-25T21:36:12.564Z,5.40
2022-11-25T21:38:12.691Z,5.40
2022-11-25T21:40:12.740Z,5.40
2022-11-25T21:42:12.729Z,5.40
2022-11-25T21:44:12.603Z,5.40
2022-11-25T21:46:12.623Z,5.40
2022-11-25T21:48:12.571Z,5.40
2022-11-25T21:50:12.683Z,5.40
2022-11-25T21:52:12.649Z,5.40
2022-11-25T21:54:12.657Z,5.40
2022-11-25T21:56:12.683Z,5.40
2022-11-25T21:58:12.761Z,5.40
2022-11-25T22:00:12.613Z,5.30
2022-11-25T22:02:12.706Z,5.30
2022-11-25T22:04:12.647Z,5.30
2022-11-25T22:06:12.672Z,5.30
2022-11-25T22:08:12.732Z,5.30
2022-11-25T22:10:12.682Z,5.30
2022-11-25T22:12:12.614Z,5.30
2022-11-25T22:14:12.738Z,5.30
2022-11-25T22:16:12.698Z,5.30
2022-11-25T22:18:12.682Z,5.40
2022-11-25T22:20:12.688Z,5.40
2022-11-25T22:22:12.712Z,5.40
2022-11-25T22:24:12.721Z,5.40
2022-11-25T22:26:12.741Z,5.30
2022-11-25T22:28:12.641Z,5.30
2022-11-25T22:30:12.637Z,5.40
2022-11-25T22:32:42.699Z,5.40
2022-11-25T22:34:42.709Z,5.40
2022-11-25T22:36:42.670Z,5.40
2022-11-25T22:38:42.844Z,5.40
2022-11-25T22:40:42.735Z,5.40
2022-11-25T22:42:42.710Z,5.40
2022-11-25T22:44:42.714Z,5.50
2022-11-25T22:46:42.645Z,5.50
2022-11-25T22:48:42.726Z,5.50
2022-11-25T22:50:42.655Z,5.40
2022-11-25T22:52:42.676Z,5.40
2022-11-25T22:54:42.740Z,5.40
2022-11-25T22:56:42.658Z,5.40
2022-11-25T22:58:42.653Z,5.30
2022-11-25T23:00:42.738Z,5.30
2022-11-25T23:02:42.701Z,5.30
2022-11-25T23:04:42.669Z,5.30
2022-11-25T23:06:42.733Z,5.20
2022-11-25T23:08:42.721Z,5.20
2022-11-25T23:10:42.762Z,5.20
2022-11-25T23:12:42.750Z,5.20
2022-11-25T23:14:42.668Z,5.20
2022-11-25T23:16:42.724Z,5.20
2022-11-25T23:18:42.640Z,5.20
2022-11-25T23:20:42.770Z,5.20
2022-11-25T23:22:42.659Z,5.20
2022-11-25T23:24:42.714Z,5.20
2022-11-25T23:26:42.745Z,5.20
2022-11-25T23:28:42.655Z,5.20
2022-11-25T23:30:42.822Z,5.20
2022-11-25T23:32:42.698Z,5.20
2022-11-25T23:34:42.657Z,5.10
2022-11-25T23:36:42.662Z,5.20
2022-11-25T23:38:42.684Z,5.10
2022-11-25T23:40:42.790Z,5.10
2022-11-25T23:42:42.686Z,5.10
2022-11-25T23:44:42.722Z,5.10
2022-11-25T23:46:42.735Z,5.20
2022-11-25T23:48:42.655Z,5.20
2022-11-25T23:50:42.671Z,5.20
2022-11-25T23:52:42.802Z,5.20
2022-11-25T23:54:42.648Z,5.20
2022-11-25T23:56:42.781Z,5.20
2022-11-25T23:58:42.772Z,5.20
